This is the latest recevied weather packets stored in our database for station/object KB6HGN. If no packets are shown the sender has not sent any weather packets the latest 10 day(s).
| Time | Temp. | Humidity | Pressure | Rain* | Wind** | Luminosity | Snow |
|---|---|---|---|---|---|---|---|
| 1777828504 | 16.67° C | 77% | 1014.9 hPa | 0 mm | - | 415 W/m² | - |
| 1777828204 | 16.67° C | 77% | 1014.9 hPa | 0 mm | - | 416 W/m² | - |
| 1777826405 | 16.67° C | 78% | 1014.8 hPa | 0 mm | - | 456 W/m² | - |
| 1777824004 | 16.11° C | 80% | 1014.5 hPa | 0 mm | - | 400 W/m² | - |
| 1777823105 | 16.11° C | 82% | 1014.5 hPa | 0 mm | - | 399 W/m² | - |
| 1777818306 | 15.56° C | 82% | 1014.2 hPa | 0 mm | - | 32 W/m² | - |
| 1777818004 | 15° C | 82% | 1014.2 hPa | 0 mm | - | 25 W/m² | - |
| 1777816504 | 15° C | 83% | 1013.9 hPa | 0 mm | - | 8 W/m² | - |
| 1777815304 | 15° C | 82% | 1013.9 hPa | 0 mm | - | 0 W/m² | - |
| 1777812004 | 15° C | 81% | 1013.2 hPa | 0 mm | - | 0 W/m² | - |
| 1777811704 | 15° C | 82% | 1013 hPa | 0 mm | - | 0 W/m² | - |
| 1777811104 | 15° C | 82% | 1013.1 hPa | 0 mm | - | 0 W/m² | - |
| 1777810204 | 15° C | 82% | 1012.9 hPa | 0 mm | - | 0 W/m² | - |
| 1777809604 | 15° C | 82% | 1013.2 hPa | 0 mm | - | 0 W/m² | - |
| 1777806004 | 14.44° C | 82% | 1013.2 hPa | 0 mm | - | 0 W/m² | - |
| 1777805704 | 14.44° C | 82% | 1013.2 hPa | 0 mm | - | 0 W/m² | - |
| 1777804504 | 14.44° C | 82% | 1013.2 hPa | 0 mm | - | 0 W/m² | - |
| 1777803304 | 14.44° C | 82% | 1013.2 hPa | 0 mm | - | 0 W/m² | - |
| 1777803004 | 14.44° C | 82% | 1013.2 hPa | 0 mm | - | 0 W/m² | - |
| 1777800005 | 15° C | 79% | 1013.2 hPa | 0 mm | - | 0 W/m² | - |
| 1777799404 | 15° C | 78% | 1013.3 hPa | 0 mm | - | 0 W/m² | - |
| 1777797304 | 15° C | 76% | 1013.5 hPa | 0 mm | - | 0 W/m² | - |
| 1777792203 | 16.11° C | 72% | 1013.2 hPa | 0 mm | - | 0 W/m² | - |
| 1777791304 | 16.67° C | 71% | 1013.2 hPa | 0 mm | - | 0 W/m² | - |
| 1777790104 | 16.67° C | 70% | 1013.2 hPa | 0 mm | - | 0 W/m² | - |
* Rain latest hour (hover to see other rain measurements)
** Current wind speed in m/s (hover to see current wind gust speed)